createdAt,value
2017-01-05T00:00:31.926Z,3.99
2017-01-05T00:01:57.607Z,4.02
2017-01-05T00:03:12.068Z,4
2017-01-05T00:04:26.615Z,3.99
2017-01-05T00:05:40.890Z,4.07
2017-01-05T00:06:55.049Z,4.03
2017-01-05T00:08:10.286Z,4.09
2017-01-05T00:09:25.799Z,4.07
2017-01-05T00:10:42.986Z,4.03
2017-01-05T00:11:58.028Z,3.99
2017-01-05T00:13:12.245Z,4
2017-01-05T00:14:26.811Z,3.99
2017-01-05T00:15:41.231Z,4
2017-01-05T00:16:55.563Z,4.03
2017-01-05T00:18:09.798Z,4.02
2017-01-05T00:19:24.563Z,4.04
2017-01-05T00:20:39.972Z,4.07
2017-01-05T00:21:54.548Z,4.02
2017-01-05T00:23:08.700Z,3.95
2017-01-05T00:24:23.876Z,3.82
2017-01-05T00:25:37.983Z,3.88
2017-01-05T00:26:55.013Z,3.86
2017-01-05T00:28:09.574Z,3.74
2017-01-05T00:29:23.826Z,3.68
2017-01-05T00:30:38.855Z,3.76
2017-01-05T00:31:53.110Z,3.76
2017-01-05T00:33:07.302Z,3.7
2017-01-05T00:34:22.582Z,3.76
2017-01-05T00:35:36.693Z,3.68
2017-01-05T00:36:50.984Z,3.71
2017-01-05T00:38:06.175Z,3.66
2017-01-05T00:39:20.606Z,3.73
2017-01-05T00:40:35.552Z,3.7
2017-01-05T00:41:50.830Z,3.64
2017-01-05T00:43:05.403Z,3.53
2017-01-05T00:44:20.797Z,3.37
2017-01-05T00:45:35.913Z,3.52
2017-01-05T00:46:50.643Z,3.43
2017-01-05T00:48:05.976Z,3.34
2017-01-05T00:49:21.224Z,3.41
2017-01-05T00:50:35.329Z,3.36
2017-01-05T00:51:49.597Z,3.4
2017-01-05T00:53:04.017Z,3.26
2017-01-05T00:54:18.853Z,3.29
2017-01-05T00:55:32.965Z,3.43
2017-01-05T00:56:47.214Z,3.24
2017-01-05T00:58:02.385Z,3.19
2017-01-05T00:59:17.028Z,3.13
2017-01-05T01:00:32.154Z,3.01
2017-01-05T01:01:46.757Z,2.98
2017-01-05T01:03:02.379Z,2.94
2017-01-05T01:04:16.558Z,2.79
2017-01-05T01:05:31.543Z,2.73
2017-01-05T01:06:45.696Z,2.57
2017-01-05T01:08:00.488Z,2.39
2017-01-05T01:09:14.671Z,2.4
2017-01-05T01:10:29.388Z,2.4
2017-01-05T01:11:44.236Z,2.4
2017-01-05T01:12:59.148Z,2.5
2017-01-05T01:14:14.578Z,2.58
2017-01-05T01:15:29.732Z,2.62
2017-01-05T01:16:43.841Z,2.68
2017-01-05T01:17:58.371Z,2.68
2017-01-05T01:19:12.603Z,2.7
2017-01-05T01:20:27.324Z,2.79
2017-01-05T01:21:41.789Z,2.77
2017-01-05T01:22:56.138Z,2.72
2017-01-05T01:24:10.529Z,2.69
2017-01-05T01:25:26.617Z,2.64
2017-01-05T01:26:40.716Z,2.69
2017-01-05T01:27:55.441Z,2.73
2017-01-05T01:29:09.556Z,2.73
2017-01-05T01:30:25.377Z,2.94
2017-01-05T01:31:40.033Z,2.82
2017-01-05T01:32:54.331Z,2.83
2017-01-05T01:34:08.907Z,2.9
2017-01-05T01:35:23.357Z,2.82
2017-01-05T01:36:42.852Z,2.97
2017-01-05T01:37:57.244Z,2.9
2017-01-05T01:39:12.221Z,2.91
2017-01-05T01:40:26.592Z,2.95
2017-01-05T01:41:40.691Z,2.97
2017-01-05T01:42:55.368Z,2.98
2017-01-05T01:44:12.668Z,3
2017-01-05T01:45:28.049Z,3
2017-01-05T01:46:42.621Z,3.13
2017-01-05T01:47:58.163Z,3.03
2017-01-05T01:49:12.527Z,3.15
2017-01-05T01:50:28.800Z,3
2017-01-05T01:51:44.460Z,2.98
2017-01-05T01:52:58.709Z,3.12
2017-01-05T01:54:12.966Z,3.09
2017-01-05T01:55:28.024Z,3.03
2017-01-05T01:56:43.287Z,3.18
2017-01-05T01:57:58.094Z,3.15
2017-01-05T01:59:12.192Z,3.08
2017-01-05T02:00:26.568Z,3.19
2017-01-05T02:01:40.997Z,3.22
2017-01-05T02:02:55.792Z,3.19
2017-01-05T02:04:11.267Z,3.12
2017-01-05T02:05:25.448Z,3.18
2017-01-05T02:06:39.675Z,3.22
2017-01-05T02:07:54.072Z,3.26
2017-01-05T02:09:08.367Z,3.26
2017-01-05T02:10:24.315Z,3.21
2017-01-05T02:11:38.909Z,3.26
2017-01-05T02:12:53.476Z,3.11
2017-01-05T02:14:09.468Z,3.15
2017-01-05T02:15:24.165Z,3.12
2017-01-05T02:16:38.746Z,3.16
2017-01-05T02:17:53.109Z,3.12
2017-01-05T02:19:07.248Z,3.13
2017-01-05T02:20:22.340Z,3.11
2017-01-05T02:21:36.445Z,3.19
2017-01-05T02:22:50.838Z,3.12
2017-01-05T02:24:05.919Z,3.12
2017-01-05T02:25:21.147Z,3.16
2017-01-05T02:26:35.647Z,3.26
2017-01-05T02:27:49.895Z,3.4
2017-01-05T02:29:04.003Z,3.29
2017-01-05T02:30:18.493Z,3.27
2017-01-05T02:31:32.673Z,3.29
2017-01-05T02:32:47.266Z,3.34
2017-01-05T02:34:01.366Z,3.29
2017-01-05T02:35:16.147Z,3.26
2017-01-05T02:36:31.561Z,3.29
2017-01-05T02:37:47.218Z,3.29
2017-01-05T02:39:01.567Z,3.29
2017-01-05T02:40:15.846Z,3.27
2017-01-05T02:41:30.474Z,3.24
2017-01-05T02:42:45.634Z,3.18
2017-01-05T02:43:59.726Z,3.19
2017-01-05T02:45:14.326Z,3.22
2017-01-05T02:46:30.631Z,3.22
2017-01-05T02:47:45.348Z,3.3
2017-01-05T02:48:59.506Z,3.21
2017-01-05T02:50:13.760Z,3.24
2017-01-05T02:51:29.113Z,3.13
2017-01-05T02:52:43.378Z,3.13
2017-01-05T02:53:57.943Z,2.97
2017-01-05T02:55:13.457Z,2.98
2017-01-05T02:56:28.020Z,3.05
2017-01-05T02:57:42.383Z,2.97
2017-01-05T02:58:56.646Z,2.98
2017-01-05T03:00:10.747Z,3.03
2017-01-05T03:01:27.843Z,2.95
2017-01-05T03:02:41.980Z,3.03
2017-01-05T03:03:56.630Z,3
2017-01-05T03:05:10.719Z,3
2017-01-05T03:06:25.492Z,3.03
2017-01-05T03:07:39.822Z,2.97
2017-01-05T03:08:54.650Z,3
2017-01-05T03:10:09.020Z,3.01
2017-01-05T03:11:23.517Z,3
2017-01-05T03:12:38.722Z,3.08
2017-01-05T03:13:52.961Z,3.05
2017-01-05T03:15:07.064Z,3
2017-01-05T03:16:22.061Z,3.05
2017-01-05T03:17:36.246Z,3.05
2017-01-05T03:18:50.945Z,3.01
2017-01-05T03:20:05.641Z,3.05
2017-01-05T03:21:20.391Z,2.94
2017-01-05T03:22:34.940Z,3.05
2017-01-05T03:23:49.046Z,2.97
2017-01-05T03:25:04.227Z,3.05
2017-01-05T03:26:18.321Z,3.01
2017-01-05T03:27:32.970Z,3.03
2017-01-05T03:28:48.002Z,3.16
2017-01-05T03:30:02.560Z,3.13
2017-01-05T03:31:16.892Z,3.15
2017-01-05T03:32:31.319Z,3.24
2017-01-05T03:33:46.201Z,3.24
2017-01-05T03:35:00.624Z,3.15
2017-01-05T03:36:14.887Z,3.16
2017-01-05T03:37:29.014Z,3.16
2017-01-05T03:38:43.433Z,3.11
2017-01-05T03:39:57.570Z,3.09
2017-01-05T03:41:12.666Z,3.22
2017-01-05T03:42:26.783Z,3.21
2017-01-05T03:43:41.649Z,3.12
2017-01-05T03:44:56.181Z,3.16
2017-01-05T03:46:10.659Z,3.18
2017-01-05T03:47:25.051Z,3.11
2017-01-05T03:48:39.803Z,3.05
2017-01-05T03:49:54.366Z,3.11
2017-01-05T03:51:09.124Z,3.11
2017-01-05T03:52:23.303Z,3.12
2017-01-05T03:53:37.950Z,3.13
2017-01-05T03:54:52.010Z,3.09
2017-01-05T03:56:06.736Z,3.15
2017-01-05T03:57:21.253Z,3.16
2017-01-05T03:58:36.098Z,2.9
2017-01-05T03:59:50.550Z,2.87
2017-01-05T04:01:05.265Z,2.9
2017-01-05T04:02:19.452Z,2.8
2017-01-05T04:03:34.205Z,2.8
2017-01-05T04:04:48.915Z,2.79
2017-01-05T04:06:05.853Z,2.7
2017-01-05T04:07:26.633Z,2.52
2017-01-05T04:08:46.340Z,2.46
2017-01-05T04:10:05.204Z,2.51
2017-01-05T04:11:20.927Z,2.5
2017-01-05T04:12:40.387Z,2.5
2017-01-05T04:13:55.000Z,2.52
2017-01-05T04:15:09.270Z,2.55
2017-01-05T04:16:23.864Z,2.72
2017-01-05T04:17:38.880Z,2.59
2017-01-05T04:18:55.981Z,2.55
2017-01-05T04:20:11.132Z,2.61
2017-01-05T04:21:25.429Z,2.69
2017-01-05T04:22:40.507Z,2.68
2017-01-05T04:23:55.869Z,2.73
2017-01-05T04:25:10.262Z,2.7
2017-01-05T04:26:24.611Z,2.77
2017-01-05T04:27:39.274Z,2.61
2017-01-05T04:28:53.583Z,2.54
2017-01-05T04:30:07.980Z,2.51
2017-01-05T04:31:22.679Z,2.61
2017-01-05T04:32:36.965Z,2.55
2017-01-05T04:33:51.371Z,2.59
2017-01-05T04:35:06.036Z,2.62
2017-01-05T04:36:20.583Z,2.68
2017-01-05T04:37:35.131Z,2.54
2017-01-05T04:38:49.538Z,2.54
2017-01-05T04:40:04.743Z,2.54
2017-01-05T04:41:19.589Z,2.46
2017-01-05T04:42:33.984Z,2.43
2017-01-05T04:43:48.237Z,2.34
2017-01-05T04:45:02.815Z,2.33
2017-01-05T04:46:17.536Z,2.41
2017-01-05T04:47:32.278Z,2.37
2017-01-05T04:48:47.103Z,2.46
2017-01-05T04:50:02.865Z,2.34
2017-01-05T04:51:17.394Z,2.43
2017-01-05T04:52:31.910Z,2.36
2017-01-05T04:53:46.444Z,2.37
2017-01-05T04:55:01.018Z,2.34
2017-01-05T04:56:15.561Z,2.37
2017-01-05T04:57:29.883Z,2.47
2017-01-05T04:58:44.946Z,2.47
2017-01-05T04:59:59.235Z,2.46
2017-01-05T05:01:13.614Z,2.51
2017-01-05T05:02:27.988Z,2.47
2017-01-05T05:03:43.592Z,2.52
2017-01-05T05:04:58.495Z,2.61
2017-01-05T05:06:13.040Z,2.52
2017-01-05T05:07:27.555Z,2.55
2017-01-05T05:08:41.636Z,2.55
2017-01-05T05:09:55.949Z,2.64
2017-01-05T05:11:10.599Z,2.65
2017-01-05T05:12:25.362Z,2.64
2017-01-05T05:13:39.745Z,2.61
2017-01-05T05:14:54.629Z,2.57
2017-01-05T05:16:09.265Z,2.52
2017-01-05T05:17:24.581Z,2.5
2017-01-05T05:18:38.725Z,2.39
2017-01-05T05:19:53.300Z,2.54
2017-01-05T05:21:07.454Z,2.39
2017-01-05T05:22:22.722Z,2.57
2017-01-05T05:23:37.262Z,2.57
2017-01-05T05:24:52.041Z,2.54
2017-01-05T05:26:06.509Z,2.51
2017-01-05T05:27:20.791Z,2.5
2017-01-05T05:28:35.018Z,2.59
2017-01-05T05:29:49.794Z,3.24
2017-01-05T05:31:06.825Z,3.59
2017-01-05T05:32:21.673Z,3.67
2017-01-05T05:33:36.378Z,3.49
2017-01-05T05:34:50.525Z,3.26
2017-01-05T05:36:07.208Z,2.98
2017-01-05T05:37:21.319Z,2.88
2017-01-05T05:38:35.903Z,2.83
2017-01-05T05:39:50.652Z,2.83
2017-01-05T05:41:05.180Z,2.68
2017-01-05T05:42:19.293Z,2.62
2017-01-05T05:43:33.604Z,2.59
2017-01-05T05:44:48.473Z,2.61
2017-01-05T05:46:02.929Z,2.65
2017-01-05T05:47:17.050Z,2.62
2017-01-05T05:48:31.893Z,2.55
2017-01-05T05:49:46.071Z,2.55
2017-01-05T05:51:02.084Z,2.54
2017-01-05T05:52:16.823Z,2.43
2017-01-05T05:53:31.077Z,2.54
2017-01-05T05:54:45.634Z,2.37
2017-01-05T05:55:59.973Z,2.43
2017-01-05T05:57:14.542Z,2.41
2017-01-05T05:58:29.355Z,2.39
2017-01-05T05:59:43.700Z,2.41
2017-01-05T06:00:58.512Z,2.37
2017-01-05T06:02:12.616Z,2.28
2017-01-05T06:03:27.672Z,2.3
2017-01-05T06:04:41.740Z,2.26
2017-01-05T06:05:56.452Z,2.18
2017-01-05T06:07:11.075Z,2.16
2017-01-05T06:08:25.346Z,2.26
2017-01-05T06:09:40.280Z,2.18
2017-01-05T06:10:55.319Z,2.15
2017-01-05T06:12:10.138Z,2.15
2017-01-05T06:13:24.254Z,2.08
2017-01-05T06:14:38.968Z,2.15
2017-01-05T06:15:53.843Z,2.14
2017-01-05T06:17:08.211Z,2.16
2017-01-05T06:18:22.313Z,2.19
2017-01-05T06:19:37.075Z,2.12
2017-01-05T06:20:51.166Z,2.16
2017-01-05T06:22:06.357Z,2.12
2017-01-05T06:23:20.433Z,2.08
2017-01-05T06:24:34.900Z,2.18
2017-01-05T06:25:48.982Z,2.19
2017-01-05T06:27:05.383Z,2.22
2017-01-05T06:28:19.643Z,2.23
2017-01-05T06:29:34.662Z,2.34
2017-01-05T06:30:48.981Z,2.4
2017-01-05T06:32:03.164Z,2.3
2017-01-05T06:33:17.484Z,2.39
2017-01-05T06:34:31.889Z,2.34
2017-01-05T06:35:46.586Z,2.4
2017-01-05T06:37:00.716Z,2.37
2017-01-05T06:38:15.959Z,2.5
2017-01-05T06:39:30.711Z,2.5
2017-01-05T06:40:45.108Z,2.43
2017-01-05T06:42:00.644Z,2.54
2017-01-05T06:43:16.768Z,2.59
2017-01-05T06:44:31.040Z,2.54
2017-01-05T06:45:45.131Z,2.55
2017-01-05T06:46:59.710Z,2.61
2017-01-05T06:48:13.874Z,2.58
2017-01-05T06:49:28.645Z,2.57
2017-01-05T06:50:42.762Z,2.62
2017-01-05T06:51:57.063Z,2.61
2017-01-05T06:53:14.294Z,2.64
2017-01-05T06:54:28.870Z,2.58
2017-01-05T06:55:43.207Z,2.65
2017-01-05T06:56:57.327Z,2.55
2017-01-05T06:58:11.719Z,2.65
2017-01-05T06:59:27.006Z,2.55
2017-01-05T07:00:41.318Z,2.57
2017-01-05T07:01:55.820Z,2.55
2017-01-05T07:03:10.665Z,2.52
2017-01-05T07:04:24.766Z,2.68
2017-01-05T07:05:39.346Z,2.51
2017-01-05T07:06:54.388Z,2.5
2017-01-05T07:08:09.234Z,2.41
2017-01-05T07:09:23.333Z,2.37
2017-01-05T07:10:39.009Z,2.37
2017-01-05T07:11:53.432Z,2.46
2017-01-05T07:13:09.227Z,2.4
2017-01-05T07:14:24.065Z,2.5
2017-01-05T07:15:38.173Z,2.37
2017-01-05T07:16:53.335Z,2.39
2017-01-05T07:18:08.205Z,2.43
2017-01-05T07:19:22.463Z,2.39
2017-01-05T07:20:37.165Z,2.37
2017-01-05T07:21:51.482Z,2.44
2017-01-05T07:23:06.130Z,2.4
2017-01-05T07:24:20.678Z,2.39
2017-01-05T07:25:35.706Z,2.37
2017-01-05T07:26:50.333Z,2.37
2017-01-05T07:28:04.970Z,2.37
2017-01-05T07:29:19.274Z,2.44
2017-01-05T07:30:33.654Z,2.32
2017-01-05T07:31:47.953Z,2.39
2017-01-05T07:33:02.341Z,2.4
2017-01-05T07:34:17.709Z,2.5
2017-01-05T07:35:32.739Z,2.5
2017-01-05T07:36:47.814Z,2.4
2017-01-05T07:38:01.946Z,2.33
2017-01-05T07:39:16.866Z,2.36
2017-01-05T07:40:31.426Z,2.34
2017-01-05T07:42:11.618Z,2.54
2017-01-05T07:43:27.144Z,2.44
2017-01-05T07:44:41.944Z,2.43
2017-01-05T07:45:56.059Z,2.4
2017-01-05T07:47:16.018Z,2.32
2017-01-05T07:48:30.526Z,2.4
2017-01-05T07:49:44.792Z,2.37
2017-01-05T07:51:00.437Z,2.23
2017-01-05T07:52:15.017Z,2.21
2017-01-05T07:53:29.352Z,2.21
2017-01-05T07:54:43.778Z,2.16
2017-01-05T07:55:58.488Z,2.15
2017-01-05T07:57:12.640Z,2.18
2017-01-05T07:58:26.975Z,2.3
2017-01-05T07:59:41.503Z,2.23
2017-01-05T08:00:56.023Z,2.26
2017-01-05T08:02:10.674Z,2.26
2017-01-05T08:03:26.461Z,2.36
2017-01-05T08:04:40.556Z,2.32
2017-01-05T08:05:55.285Z,2.28
2017-01-05T08:07:10.160Z,2.39
2017-01-05T08:08:24.466Z,2.3
2017-01-05T08:09:39.278Z,2.34
2017-01-05T08:10:57.203Z,2.44
2017-01-05T08:12:11.855Z,2.44
2017-01-05T08:13:26.747Z,2.4
2017-01-05T08:14:40.991Z,2.28
2017-01-05T08:15:55.263Z,2.37
2017-01-05T08:17:09.995Z,2.39
2017-01-05T08:18:24.146Z,2.32
2017-01-05T08:19:38.545Z,2.47
2017-01-05T08:20:52.661Z,2.39
2017-01-05T08:22:07.842Z,2.4
2017-01-05T08:23:22.438Z,2.41
2017-01-05T08:24:36.803Z,2.36
2017-01-05T08:25:51.713Z,2.37
2017-01-05T08:27:06.989Z,2.3
2017-01-05T08:28:21.256Z,2.37
2017-01-05T08:29:35.634Z,2.34
2017-01-05T08:30:49.751Z,2.34
2017-01-05T08:32:04.956Z,2.34
2017-01-05T08:33:19.519Z,2.43
2017-01-05T08:34:34.610Z,2.4
2017-01-05T08:35:49.194Z,2.47
2017-01-05T08:37:03.531Z,2.51
2017-01-05T08:38:18.082Z,2.46
2017-01-05T08:39:32.885Z,2.4
2017-01-05T08:40:47.575Z,2.54
2017-01-05T08:42:02.352Z,2.4
2017-01-05T08:43:16.463Z,2.4
2017-01-05T08:44:32.090Z,2.58
2017-01-05T08:45:46.299Z,2.62
2017-01-05T08:47:00.790Z,2.52
2017-01-05T08:48:16.003Z,2.57
2017-01-05T08:49:32.729Z,2.61
2017-01-05T08:50:47.009Z,2.57
2017-01-05T08:52:01.568Z,2.58
2017-01-05T08:53:42.699Z,2.59
2017-01-05T08:54:56.932Z,2.58
2017-01-05T08:56:11.703Z,2.54
2017-01-05T08:57:27.340Z,2.44
2017-01-05T08:58:41.902Z,2.55
2017-01-05T08:59:56.643Z,2.64
2017-01-05T09:01:36.897Z,2.52
2017-01-05T09:02:51.154Z,2.55
2017-01-05T09:04:05.710Z,2.68
2017-01-05T09:05:20.515Z,2.61
2017-01-05T09:06:35.075Z,2.73
2017-01-05T09:07:49.362Z,2.73
2017-01-05T09:09:03.678Z,2.76
2017-01-05T09:10:18.062Z,2.79
2017-01-05T09:11:32.645Z,2.77
2017-01-05T09:12:48.026Z,2.79
2017-01-05T09:14:02.171Z,2.7
2017-01-05T09:15:17.904Z,2.73
2017-01-05T09:16:32.059Z,2.75
2017-01-05T09:17:46.352Z,2.77
2017-01-05T09:19:01.595Z,2.8
2017-01-05T09:20:16.451Z,2.68
2017-01-05T09:21:31.178Z,2.72
2017-01-05T09:23:13.003Z,2.59
2017-01-05T09:24:27.854Z,2.68
2017-01-05T09:25:44.323Z,2.54
2017-01-05T09:26:58.590Z,2.57
2017-01-05T09:28:12.677Z,3.03
2017-01-05T09:29:29.539Z,3.86
2017-01-05T09:30:44.709Z,3.68
2017-01-05T09:31:59.631Z,3.41
2017-01-05T09:33:14.223Z,3.18
2017-01-05T09:34:28.511Z,2.97
2017-01-05T09:35:44.215Z,2.91
2017-01-05T09:36:59.151Z,3.03
2017-01-05T09:38:13.516Z,2.91
2017-01-05T09:39:28.498Z,2.8
2017-01-05T09:40:55.885Z,2.77
2017-01-05T09:42:11.497Z,2.73
2017-01-05T09:43:26.722Z,2.61
2017-01-05T09:44:40.924Z,2.52
2017-01-05T09:45:56.542Z,2.7
2017-01-05T09:47:11.771Z,2.59
2017-01-05T09:48:25.972Z,2.55
2017-01-05T09:49:40.759Z,2.61
2017-01-05T09:50:55.500Z,2.58
2017-01-05T09:52:09.838Z,2.73
2017-01-05T09:53:23.954Z,2.73
2017-01-05T09:54:38.554Z,2.87
2017-01-05T09:55:53.391Z,2.98
2017-01-05T09:57:08.158Z,2.88
2017-01-05T09:58:22.273Z,3.09
2017-01-05T09:59:36.984Z,3.01
2017-01-05T10:00:51.488Z,2.95
2017-01-05T10:02:05.813Z,2.93
2017-01-05T10:03:19.946Z,2.82
2017-01-05T10:04:34.233Z,2.75
2017-01-05T10:05:48.303Z,2.85
2017-01-05T10:07:03.347Z,2.87
2017-01-05T10:08:17.595Z,2.94
2017-01-05T10:09:32.317Z,2.93
2017-01-05T10:10:46.418Z,2.95
2017-01-05T10:12:01.283Z,2.91
2017-01-05T10:13:15.391Z,2.73
2017-01-05T10:14:43.816Z,2.77
2017-01-05T10:15:58.961Z,2.93
2017-01-05T10:17:13.067Z,2.95
2017-01-05T10:18:27.331Z,2.9
2017-01-05T10:19:42.028Z,2.93
2017-01-05T10:20:56.926Z,2.75
2017-01-05T10:22:12.110Z,2.73
2017-01-05T10:23:26.390Z,2.77
2017-01-05T10:24:41.065Z,2.82
2017-01-05T10:25:57.354Z,2.73
2017-01-05T10:27:12.357Z,2.69
2017-01-05T10:28:27.423Z,2.68
2017-01-05T10:29:41.541Z,2.77
2017-01-05T10:30:56.453Z,2.83
2017-01-05T10:32:10.765Z,2.79
2017-01-05T10:33:42.850Z,2.87
2017-01-05T10:34:57.129Z,2.94
2017-01-05T10:36:11.357Z,2.95
2017-01-05T10:37:26.126Z,2.83
2017-01-05T10:38:40.562Z,2.77
2017-01-05T10:39:55.190Z,2.88
2017-01-05T10:41:09.388Z,2.9
2017-01-05T10:42:24.598Z,2.93
2017-01-05T10:43:38.720Z,2.91
2017-01-05T10:44:52.975Z,2.93
2017-01-05T10:46:08.629Z,3
2017-01-05T10:47:25.152Z,2.68
2017-01-05T10:48:39.777Z,2.68
2017-01-05T10:49:54.758Z,2.7
2017-01-05T10:51:10.039Z,2.73
2017-01-05T10:52:25.219Z,2.72
2017-01-05T10:53:39.816Z,2.62
2017-01-05T10:54:54.968Z,2.59
2017-01-05T10:56:09.625Z,2.68
2017-01-05T10:57:24.153Z,2.5
2017-01-05T10:58:39.146Z,2.5
2017-01-05T10:59:53.732Z,2.34
2017-01-05T11:01:09.819Z,2.34
2017-01-05T11:02:24.087Z,2.37
2017-01-05T11:03:38.813Z,2.33
2017-01-05T11:04:53.393Z,2.34
2017-01-05T11:06:08.434Z,2.36
2017-01-05T11:07:23.990Z,2.34
2017-01-05T11:08:38.105Z,2.3
2017-01-05T11:09:52.445Z,2.34
2017-01-05T11:11:07.349Z,2.28
2017-01-05T11:12:22.424Z,2.25
2017-01-05T11:13:37.219Z,2.28
2017-01-05T11:14:51.970Z,2.21
2017-01-05T11:16:06.293Z,2.15
2017-01-05T11:17:20.941Z,2.33
2017-01-05T11:18:36.058Z,2.18
2017-01-05T11:19:50.809Z,2.16
2017-01-05T11:21:06.193Z,2.28
2017-01-05T11:22:20.797Z,2.36
2017-01-05T11:23:35.215Z,2.47
2017-01-05T11:25:06.893Z,2.33
2017-01-05T11:26:22.517Z,2.43
2017-01-05T11:27:39.145Z,2.52
2017-01-05T11:28:53.399Z,2.54
2017-01-05T11:30:07.732Z,2.62
2017-01-05T11:31:22.756Z,2.57
2017-01-05T11:32:36.945Z,2.79
2017-01-05T11:33:51.708Z,2.75
2017-01-05T11:35:05.880Z,2.82
2017-01-05T11:36:20.188Z,2.77
2017-01-05T11:37:34.890Z,2.7
2017-01-05T11:38:49.704Z,2.73
2017-01-05T11:40:03.832Z,2.72
2017-01-05T11:41:18.687Z,2.7
2017-01-05T11:42:32.863Z,2.72
2017-01-05T11:43:47.640Z,2.62
2017-01-05T11:45:02.764Z,2.58
2017-01-05T11:46:17.596Z,2.55
2017-01-05T11:47:34.184Z,2.54
2017-01-05T11:48:48.986Z,2.54
2017-01-05T11:50:03.411Z,2.59
2017-01-05T11:51:18.135Z,2.72
2017-01-05T11:52:32.937Z,2.68
2017-01-05T11:53:47.691Z,2.62
2017-01-05T11:55:02.880Z,2.73
2017-01-05T11:56:17.265Z,2.7
2017-01-05T11:57:32.524Z,2.73
2017-01-05T11:58:46.740Z,2.77
2017-01-05T12:00:01.650Z,2.76
2017-01-05T12:01:16.303Z,2.69
2017-01-05T12:02:30.891Z,2.75
2017-01-05T12:03:46.067Z,2.73
2017-01-05T12:05:02.652Z,2.75
2017-01-05T12:06:17.700Z,2.75
2017-01-05T12:07:32.063Z,2.77
2017-01-05T12:08:46.570Z,2.73
2017-01-05T12:10:01.330Z,2.58
2017-01-05T12:11:15.445Z,2.57
2017-01-05T12:12:29.734Z,2.5
2017-01-05T12:13:45.307Z,2.57
2017-01-05T12:15:00.337Z,2.68
2017-01-05T12:16:15.555Z,2.52
2017-01-05T12:17:29.803Z,2.58
2017-01-05T12:18:44.468Z,2.64
2017-01-05T12:19:59.229Z,2.51
2017-01-05T12:21:14.083Z,2.64
2017-01-05T12:22:29.366Z,2.55
2017-01-05T12:23:44.446Z,2.62
2017-01-05T12:24:59.800Z,2.58
2017-01-05T12:26:13.946Z,2.62
2017-01-05T12:27:29.166Z,2.55
2017-01-05T12:28:43.947Z,2.58
2017-01-05T12:29:58.779Z,2.64
2017-01-05T12:31:13.473Z,2.57
2017-01-05T12:32:27.769Z,2.5
2017-01-05T12:33:43.991Z,2.5
2017-01-05T12:34:58.538Z,2.37
2017-01-05T12:36:12.674Z,2.58
2017-01-05T12:37:27.985Z,2.59
2017-01-05T12:38:43.161Z,2.57
2017-01-05T12:39:58.710Z,2.44
2017-01-05T12:41:12.930Z,2.41
2017-01-05T12:42:27.744Z,2.36
2017-01-05T12:43:41.980Z,2.5
2017-01-05T12:44:56.355Z,2.59
2017-01-05T12:46:12.235Z,2.55
2017-01-05T12:47:27.009Z,2.72
2017-01-05T12:48:41.386Z,2.62
2017-01-05T12:49:56.021Z,2.76
2017-01-05T12:51:10.770Z,2.72
2017-01-05T12:52:25.137Z,2.76
2017-01-05T12:53:40.532Z,2.8
2017-01-05T12:54:54.855Z,2.77
2017-01-05T12:56:09.408Z,2.75
2017-01-05T12:57:24.167Z,2.68
2017-01-05T12:58:39.133Z,2.73
2017-01-05T12:59:55.177Z,2.77
2017-01-05T13:01:09.441Z,2.88
2017-01-05T13:02:24.612Z,2.95
2017-01-05T13:03:39.368Z,3.03
2017-01-05T13:04:54.352Z,2.97
2017-01-05T13:06:09.728Z,3.09
2017-01-05T13:07:25.029Z,3.01
2017-01-05T13:08:39.967Z,2.87
2017-01-05T13:09:56.188Z,2.85
2017-01-05T13:11:11.263Z,2.9
2017-01-05T13:12:25.387Z,2.91
2017-01-05T13:13:39.696Z,2.83
2017-01-05T13:14:55.132Z,2.87
2017-01-05T13:16:09.408Z,2.83
2017-01-05T13:17:23.857Z,2.72
2017-01-05T13:18:38.640Z,2.61
2017-01-05T13:19:57.608Z,2.58
2017-01-05T13:21:12.847Z,2.59
2017-01-05T13:22:30.027Z,2.57
2017-01-05T13:23:44.950Z,2.62
2017-01-05T13:24:59.286Z,2.52
2017-01-05T13:26:14.054Z,2.54
2017-01-05T13:27:28.782Z,2.72
2017-01-05T13:28:43.345Z,2.69
2017-01-05T13:29:57.934Z,2.75
2017-01-05T13:31:12.727Z,2.72
2017-01-05T13:33:18.481Z,2.79
2017-01-05T13:34:33.251Z,2.73
2017-01-05T13:35:48.914Z,2.62
2017-01-05T13:37:03.217Z,2.73
2017-01-05T13:38:17.458Z,2.75
2017-01-05T13:39:31.749Z,2.77
2017-01-05T13:40:45.927Z,2.77
2017-01-05T13:42:01.113Z,2.82
2017-01-05T13:43:17.703Z,2.82
2017-01-05T13:44:31.970Z,2.76
2017-01-05T13:45:46.625Z,2.76
2017-01-05T13:47:01.902Z,2.95
2017-01-05T13:48:17.389Z,2.94
2017-01-05T13:49:32.905Z,3.01
2017-01-05T13:50:47.907Z,2.95
2017-01-05T13:52:02.484Z,3
2017-01-05T13:53:17.407Z,2.98
2017-01-05T13:54:31.864Z,3.16
2017-01-05T13:55:46.158Z,3.03
2017-01-05T13:57:00.279Z,3.03
2017-01-05T13:58:15.374Z,3.01
2017-01-05T13:59:29.960Z,3.15
2017-01-05T14:00:44.816Z,3.13
2017-01-05T14:01:58.923Z,2.98
2017-01-05T14:03:13.227Z,2.97
2017-01-05T14:04:27.844Z,2.97
2017-01-05T14:05:42.096Z,2.97
2017-01-05T14:06:57.001Z,2.82
2017-01-05T14:08:11.283Z,2.8
2017-01-05T14:09:25.844Z,2.87
2017-01-05T14:10:40.147Z,2.93
2017-01-05T14:11:54.315Z,2.9
2017-01-05T14:13:09.329Z,2.76
2017-01-05T14:14:23.883Z,2.73
2017-01-05T14:15:38.147Z,2.55
2017-01-05T14:16:52.285Z,2.51
2017-01-05T14:18:06.590Z,2.5
2017-01-05T14:19:21.022Z,2.39
2017-01-05T14:20:36.208Z,2.36
2017-01-05T14:21:50.438Z,2.34
2017-01-05T14:23:04.789Z,2.46
2017-01-05T14:24:38.373Z,2.39
2017-01-05T14:25:52.909Z,2.43
2017-01-05T14:27:23.140Z,2.44
2017-01-05T14:28:37.857Z,2.41
2017-01-05T14:29:54.191Z,2.4
2017-01-05T14:31:09.083Z,2.3
2017-01-05T14:32:23.423Z,2.34
2017-01-05T14:33:37.751Z,2.28
2017-01-05T14:34:52.017Z,2.22
2017-01-05T14:36:06.737Z,2.28
2017-01-05T14:37:21.757Z,2.25
2017-01-05T14:38:36.089Z,2.37
2017-01-05T14:39:50.388Z,2.34
2017-01-05T14:41:07.027Z,2.39
2017-01-05T14:42:21.260Z,2.4
2017-01-05T14:43:46.307Z,2.34
2017-01-05T14:45:01.809Z,2.36
2017-01-05T14:46:16.040Z,2.4
2017-01-05T14:47:32.305Z,2.4
2017-01-05T14:48:46.666Z,2.36
2017-01-05T14:50:01.952Z,2.37
2017-01-05T14:51:16.903Z,2.46
2017-01-05T14:52:31.561Z,2.58
2017-01-05T14:53:46.096Z,2.54
2017-01-05T14:55:00.412Z,2.55
2017-01-05T14:56:15.027Z,2.57
2017-01-05T14:57:29.191Z,2.59
2017-01-05T14:58:44.640Z,2.58
2017-01-05T14:59:58.851Z,2.65
2017-01-05T15:01:13.004Z,2.57
2017-01-05T15:02:28.132Z,2.54
2017-01-05T15:03:42.955Z,2.47
2017-01-05T15:04:57.544Z,2.4
2017-01-05T15:06:12.293Z,2.23
2017-01-05T15:07:32.636Z,2.1
2017-01-05T15:08:47.075Z,2.1
2017-01-05T15:10:01.423Z,2.1
2017-01-05T15:11:15.723Z,2.12
2017-01-05T15:12:31.137Z,1.98
2017-01-05T15:13:46.108Z,1.98
2017-01-05T15:15:00.604Z,2.05
2017-01-05T15:16:15.390Z,1.86
2017-01-05T15:17:29.502Z,1.84
2017-01-05T15:18:44.857Z,1.86
2017-01-05T15:19:59.429Z,1.74
2017-01-05T15:21:14.244Z,1.75
2017-01-05T15:22:28.376Z,1.78
2017-01-05T15:23:44.908Z,1.74
2017-01-05T15:24:59.044Z,1.74
2017-01-05T15:26:13.326Z,1.74
2017-01-05T15:27:27.766Z,1.63
2017-01-05T15:28:42.154Z,1.61
2017-01-05T15:29:56.442Z,1.46
2017-01-05T15:31:11.088Z,1.56
2017-01-05T15:32:25.643Z,1.52
2017-01-05T15:33:40.291Z,1.49
2017-01-05T15:34:54.874Z,1.5
2017-01-05T15:36:10.152Z,1.46
2017-01-05T15:37:24.905Z,1.49
2017-01-05T15:38:39.637Z,1.4
2017-01-05T15:39:53.960Z,1.34
2017-01-05T15:41:09.434Z,1.39
2017-01-05T15:42:24.158Z,1.38
2017-01-05T15:43:46.485Z,1.5
2017-01-05T15:45:05.253Z,1.38
2017-01-05T15:46:20.465Z,1.48
2017-01-05T15:47:34.598Z,1.42
2017-01-05T15:48:49.119Z,1.39
2017-01-05T15:50:03.821Z,1.38
2017-01-05T15:51:18.140Z,1.39
2017-01-05T15:52:33.209Z,1.28
2017-01-05T15:53:49.286Z,1.3
2017-01-05T15:55:04.122Z,1.22
2017-01-05T15:56:31.006Z,1.21
2017-01-05T15:57:48.940Z,1.21
2017-01-05T15:59:07.390Z,1.07
2017-01-05T16:00:21.689Z,1.1
2017-01-05T16:01:37.316Z,1
2017-01-05T16:02:51.576Z,1.1
2017-01-05T16:04:05.834Z,0.96
2017-01-05T16:05:20.489Z,1.02
2017-01-05T16:06:35.936Z,1.02
2017-01-05T16:07:50.395Z,1.02
2017-01-05T16:09:05.814Z,1.07
2017-01-05T16:10:20.330Z,1.1
2017-01-05T16:11:35.900Z,0.99
2017-01-05T16:12:50.449Z,0.95
2017-01-05T16:14:07.064Z,1.06
2017-01-05T16:15:22.308Z,0.95
2017-01-05T16:16:36.764Z,1.1
2017-01-05T16:18:01.448Z,1.12
2017-01-05T16:19:16.993Z,1.09
2017-01-05T16:20:31.622Z,1.06
2017-01-05T16:21:45.928Z,0.95
2017-01-05T16:23:00.048Z,0.92
2017-01-05T16:24:15.165Z,1.06
2017-01-05T16:25:30.108Z,0.99
2017-01-05T16:26:45.291Z,0.99
2017-01-05T16:27:59.943Z,0.96
2017-01-05T16:29:15.534Z,0.96
2017-01-05T16:30:29.781Z,0.94
2017-01-05T16:31:43.970Z,0.92
2017-01-05T16:32:58.338Z,0.88
2017-01-05T16:34:13.063Z,0.88
2017-01-05T16:35:30.145Z,1
2017-01-05T16:36:48.607Z,0.96
2017-01-05T16:38:03.230Z,0.89
2017-01-05T16:39:17.621Z,0.84
2017-01-05T16:40:32.911Z,0.91
2017-01-05T16:41:49.015Z,0.95
2017-01-05T16:43:04.325Z,0.91
2017-01-05T16:44:19.174Z,0.94
2017-01-05T16:45:33.516Z,0.82